sensor_id;sensor_type;location;lat;lon;timestamp;temperature;humidity
15906;DHT22;8051;50.820;4.884;2023-04-25T00:01:47;7.40;99.90
15906;DHT22;8051;50.820;4.884;2023-04-25T00:04:14;7.40;99.90
15906;DHT22;8051;50.820;4.884;2023-04-25T00:06:42;7.30;99.90
15906;DHT22;8051;50.820;4.884;2023-04-25T00:09:09;7.30;99.90
15906;DHT22;8051;50.820;4.884;2023-04-25T00:11:38;7.30;99.90
15906;DHT22;8051;50.820;4.884;2023-04-25T00:14:06;7.40;99.90
15906;DHT22;8051;50.820;4.884;2023-04-25T00:16:33;7.40;99.90
15906;DHT22;8051;50.820;4.884;2023-04-25T00:19:01;7.40;99.90
15906;DHT22;8051;50.820;4.884;2023-04-25T00:21:29;7.50;99.90
15906;DHT22;8051;50.820;4.884;2023-04-25T00:23:57;7.60;99.90
15906;DHT22;8051;50.820;4.884;2023-04-25T00:26:25;7.60;99.90
15906;DHT22;8051;50.820;4.884;2023-04-25T00:28:53;7.70;99.90
15906;DHT22;8051;50.820;4.884;2023-04-25T00:31:21;7.70;99.90
15906;DHT22;8051;50.820;4.884;2023-04-25T00:33:48;7.80;99.90
15906;DHT22;8051;50.820;4.884;2023-04-25T00:36:16;7.70;99.90
15906;DHT22;8051;50.820;4.884;2023-04-25T00:38:44;7.70;99.90
15906;DHT22;8051;50.820;4.884;2023-04-25T00:41:11;7.60;99.90
15906;DHT22;8051;50.820;4.884;2023-04-25T00:43:40;7.60;99.90
15906;DHT22;8051;50.820;4.884;2023-04-25T00:46:09;7.70;99.90
15906;DHT22;8051;50.820;4.884;2023-04-25T00:48:36;7.70;99.90
15906;DHT22;8051;50.820;4.884;2023-04-25T00:51:04;7.70;99.90
15906;DHT22;8051;50.820;4.884;2023-04-25T00:53:32;7.70;99.90
15906;DHT22;8051;50.820;4.884;2023-04-25T00:56:00;7.70;99.90
15906;DHT22;8051;50.820;4.884;2023-04-25T00:58:27;7.70;99.90
15906;DHT22;8051;50.820;4.884;2023-04-25T01:00:55;7.70;99.90
15906;DHT22;8051;50.820;4.884;2023-04-25T01:03:26;7.70;99.90
15906;DHT22;8051;50.820;4.884;2023-04-25T01:05:54;7.60;99.90
15906;DHT22;8051;50.820;4.884;2023-04-25T01:08:24;7.60;99.90
15906;DHT22;8051;50.820;4.884;2023-04-25T01:10:51;7.50;99.90
15906;DHT22;8051;50.820;4.884;2023-04-25T01:13:19;7.40;99.90
15906;DHT22;8051;50.820;4.884;2023-04-25T01:15:47;7.30;99.90
15906;DHT22;8051;50.820;4.884;2023-04-25T01:18:15;7.30;99.90
15906;DHT22;8051;50.820;4.884;2023-04-25T01:20:44;7.20;99.90
15906;DHT22;8051;50.820;4.884;2023-04-25T01:23:14;7.20;99.90
15906;DHT22;8051;50.820;4.884;2023-04-25T01:25:42;7.10;99.90
15906;DHT22;8051;50.820;4.884;2023-04-25T01:28:10;7.10;99.90
15906;DHT22;8051;50.820;4.884;2023-04-25T01:30:37;7.00;99.90
15906;DHT22;8051;50.820;4.884;2023-04-25T01:33:06;7.00;99.90
15906;DHT22;8051;50.820;4.884;2023-04-25T01:35:34;6.90;99.90
15906;DHT22;8051;50.820;4.884;2023-04-25T01:38:02;6.90;99.90
15906;DHT22;8051;50.820;4.884;2023-04-25T01:40:31;6.80;99.90
15906;DHT22;8051;50.820;4.884;2023-04-25T01:43:00;6.80;99.90
15906;DHT22;8051;50.820;4.884;2023-04-25T01:45:28;6.80;99.90
15906;DHT22;8051;50.820;4.884;2023-04-25T01:47:55;6.70;99.90
15906;DHT22;8051;50.820;4.884;2023-04-25T01:50:25;6.70;99.90
15906;DHT22;8051;50.820;4.884;2023-04-25T01:52:53;6.70;99.90
15906;DHT22;8051;50.820;4.884;2023-04-25T01:55:21;6.70;99.90
15906;DHT22;8051;50.820;4.884;2023-04-25T01:57:50;6.80;99.90
15906;DHT22;8051;50.820;4.884;2023-04-25T02:00:18;6.80;99.90
15906;DHT22;8051;50.820;4.884;2023-04-25T02:02:46;6.80;99.90
15906;DHT22;8051;50.820;4.884;2023-04-25T02:05:14;6.80;99.90
15906;DHT22;8051;50.820;4.884;2023-04-25T02:07:41;6.80;99.90
15906;DHT22;8051;50.820;4.884;2023-04-25T02:10:09;6.80;99.90
15906;DHT22;8051;50.820;4.884;2023-04-25T02:12:37;6.80;99.90
15906;DHT22;8051;50.820;4.884;2023-04-25T02:15:07;6.80;99.90
15906;DHT22;8051;50.820;4.884;2023-04-25T02:17:34;6.80;99.90
15906;DHT22;8051;50.820;4.884;2023-04-25T02:20:02;6.90;99.90
15906;DHT22;8051;50.820;4.884;2023-04-25T02:22:29;6.90;99.90
15906;DHT22;8051;50.820;4.884;2023-04-25T02:24:57;6.90;99.90
15906;DHT22;8051;50.820;4.884;2023-04-25T02:27:24;6.90;99.90
15906;DHT22;8051;50.820;4.884;2023-04-25T02:29:52;6.90;99.90
15906;DHT22;8051;50.820;4.884;2023-04-25T02:32:21;6.90;99.90
15906;DHT22;8051;50.820;4.884;2023-04-25T02:34:48;6.90;99.90
15906;DHT22;8051;50.820;4.884;2023-04-25T02:37:16;6.90;99.90
15906;DHT22;8051;50.820;4.884;2023-04-25T02:39:43;6.90;99.90
15906;DHT22;8051;50.820;4.884;2023-04-25T02:42:10;6.90;99.90
15906;DHT22;8051;50.820;4.884;2023-04-25T02:44:38;6.80;99.90
15906;DHT22;8051;50.820;4.884;2023-04-25T02:47:05;6.80;99.90
15906;DHT22;8051;50.820;4.884;2023-04-25T02:49:34;6.80;99.90
15906;DHT22;8051;50.820;4.884;2023-04-25T02:52:01;6.80;99.90
15906;DHT22;8051;50.820;4.884;2023-04-25T02:54:28;6.80;99.90
15906;DHT22;8051;50.820;4.884;2023-04-25T02:56:56;6.80;99.90
15906;DHT22;8051;50.820;4.884;2023-04-25T02:59:23;6.80;99.90
15906;DHT22;8051;50.820;4.884;2023-04-25T03:01:51;6.80;99.90
15906;DHT22;8051;50.820;4.884;2023-04-25T03:04:18;6.80;99.90
15906;DHT22;8051;50.820;4.884;2023-04-25T03:06:48;6.80;99.90
15906;DHT22;8051;50.820;4.884;2023-04-25T03:09:15;6.80;99.90
15906;DHT22;8051;50.820;4.884;2023-04-25T03:11:44;6.70;99.90
15906;DHT22;8051;50.820;4.884;2023-04-25T03:14:12;6.70;99.90
15906;DHT22;8051;50.820;4.884;2023-04-25T03:16:40;6.80;99.90
15906;DHT22;8051;50.820;4.884;2023-04-25T03:19:07;6.70;99.90
15906;DHT22;8051;50.820;4.884;2023-04-25T03:21:35;6.70;99.90
15906;DHT22;8051;50.820;4.884;2023-04-25T03:24:06;6.70;99.90
15906;DHT22;8051;50.820;4.884;2023-04-25T03:26:33;6.70;99.90
15906;DHT22;8051;50.820;4.884;2023-04-25T03:29:01;6.70;99.90
15906;DHT22;8051;50.820;4.884;2023-04-25T03:31:28;6.70;99.90
15906;DHT22;8051;50.820;4.884;2023-04-25T03:33:56;6.70;99.90
15906;DHT22;8051;50.820;4.884;2023-04-25T03:36:23;6.70;99.90
15906;DHT22;8051;50.820;4.884;2023-04-25T03:38:51;6.70;99.90
15906;DHT22;8051;50.820;4.884;2023-04-25T03:41:20;6.70;99.90
15906;DHT22;8051;50.820;4.884;2023-04-25T03:43:47;6.70;99.90
15906;DHT22;8051;50.820;4.884;2023-04-25T03:46:15;6.70;99.90
15906;DHT22;8051;50.820;4.884;2023-04-25T03:48:42;6.80;99.90
15906;DHT22;8051;50.820;4.884;2023-04-25T03:51:10;6.70;99.90
15906;DHT22;8051;50.820;4.884;2023-04-25T03:53:37;6.80;99.90
15906;DHT22;8051;50.820;4.884;2023-04-25T03:56:05;6.70;99.90
15906;DHT22;8051;50.820;4.884;2023-04-25T03:58:34;6.60;99.90
15906;DHT22;8051;50.820;4.884;2023-04-25T04:01:02;6.60;99.90
15906;DHT22;8051;50.820;4.884;2023-04-25T04:03:33;6.50;99.90
15906;DHT22;8051;50.820;4.884;2023-04-25T04:06:01;6.40;99.90
15906;DHT22;8051;50.820;4.884;2023-04-25T04:08:29;6.40;99.90
15906;DHT22;8051;50.820;4.884;2023-04-25T04:10:57;6.30;99.90
15906;DHT22;8051;50.820;4.884;2023-04-25T04:13:26;6.30;99.90
15906;DHT22;8051;50.820;4.884;2023-04-25T04:15:55;6.30;99.90
15906;DHT22;8051;50.820;4.884;2023-04-25T04:18:23;6.30;99.90
15906;DHT22;8051;50.820;4.884;2023-04-25T04:20:50;6.30;99.90
15906;DHT22;8051;50.820;4.884;2023-04-25T04:23:18;6.20;99.90
15906;DHT22;8051;50.820;4.884;2023-04-25T04:25:46;6.20;99.90
15906;DHT22;8051;50.820;4.884;2023-04-25T04:28:14;6.10;99.90
15906;DHT22;8051;50.820;4.884;2023-04-25T04:30:42;6.10;99.90
15906;DHT22;8051;50.820;4.884;2023-04-25T04:33:14;6.10;99.90
15906;DHT22;8051;50.820;4.884;2023-04-25T04:35:42;6.10;99.90
15906;DHT22;8051;50.820;4.884;2023-04-25T04:38:09;6.10;99.90
15906;DHT22;8051;50.820;4.884;2023-04-25T04:40:36;6.00;99.90
15906;DHT22;8051;50.820;4.884;2023-04-25T04:43:04;5.90;99.90
15906;DHT22;8051;50.820;4.884;2023-04-25T04:45:31;6.00;99.90
15906;DHT22;8051;50.820;4.884;2023-04-25T04:47:59;6.00;99.90
15906;DHT22;8051;50.820;4.884;2023-04-25T04:50:28;5.90;99.90
15906;DHT22;8051;50.820;4.884;2023-04-25T04:52:58;6.00;99.90
15906;DHT22;8051;50.820;4.884;2023-04-25T04:55:26;6.00;99.90
15906;DHT22;8051;50.820;4.884;2023-04-25T04:57:53;5.90;99.90
15906;DHT22;8051;50.820;4.884;2023-04-25T05:00:21;5.90;99.90
15906;DHT22;8051;50.820;4.884;2023-04-25T05:02:48;6.00;99.90
15906;DHT22;8051;50.820;4.884;2023-04-25T05:05:16;6.00;99.90
15906;DHT22;8051;50.820;4.884;2023-04-25T05:07:45;6.10;99.90
15906;DHT22;8051;50.820;4.884;2023-04-25T05:10:12;6.20;99.90
15906;DHT22;8051;50.820;4.884;2023-04-25T05:12:40;6.20;99.90
15906;DHT22;8051;50.820;4.884;2023-04-25T05:15:08;6.10;99.90
15906;DHT22;8051;50.820;4.884;2023-04-25T05:17:35;6.20;99.90
15906;DHT22;8051;50.820;4.884;2023-04-25T05:20:03;6.20;99.90
15906;DHT22;8051;50.820;4.884;2023-04-25T05:22:32;6.20;99.90
15906;DHT22;8051;50.820;4.884;2023-04-25T05:25:01;6.30;99.90
15906;DHT22;8051;50.820;4.884;2023-04-25T05:27:29;6.30;99.90
15906;DHT22;8051;50.820;4.884;2023-04-25T05:29:57;6.30;99.90
15906;DHT22;8051;50.820;4.884;2023-04-25T05:32:24;6.30;99.90
15906;DHT22;8051;50.820;4.884;2023-04-25T05:34:52;6.30;99.90
15906;DHT22;8051;50.820;4.884;2023-04-25T05:37:19;6.30;99.90
15906;DHT22;8051;50.820;4.884;2023-04-25T05:39:46;6.40;99.90
15906;DHT22;8051;50.820;4.884;2023-04-25T05:42:15;6.30;99.90
15906;DHT22;8051;50.820;4.884;2023-04-25T05:44:43;6.30;99.90
15906;DHT22;8051;50.820;4.884;2023-04-25T05:47:10;6.20;99.90
15906;DHT22;8051;50.820;4.884;2023-04-25T05:49:38;6.20;99.90
15906;DHT22;8051;50.820;4.884;2023-04-25T05:52:05;6.10;99.90
15906;DHT22;8051;50.820;4.884;2023-04-25T05:54:32;6.10;99.90
15906;DHT22;8051;50.820;4.884;2023-04-25T05:57:00;6.10;99.90
15906;DHT22;8051;50.820;4.884;2023-04-25T05:59:30;6.10;99.90
15906;DHT22;8051;50.820;4.884;2023-04-25T06:01:57;6.10;99.90
15906;DHT22;8051;50.820;4.884;2023-04-25T06:04:25;6.20;99.90
15906;DHT22;8051;50.820;4.884;2023-04-25T06:06:53;6.20;99.90
15906;DHT22;8051;50.820;4.884;2023-04-25T06:09:20;6.30;99.90
15906;DHT22;8051;50.820;4.884;2023-04-25T06:11:48;6.30;99.90
15906;DHT22;8051;50.820;4.884;2023-04-25T06:14:15;6.30;99.90
15906;DHT22;8051;50.820;4.884;2023-04-25T06:16:44;6.30;99.90
15906;DHT22;8051;50.820;4.884;2023-04-25T06:19:11;6.30;99.90
15906;DHT22;8051;50.820;4.884;2023-04-25T06:21:39;6.40;99.90
15906;DHT22;8051;50.820;4.884;2023-04-25T06:24:07;6.40;99.90
15906;DHT22;8051;50.820;4.884;2023-04-25T06:26:34;6.50;99.90
15906;DHT22;8051;50.820;4.884;2023-04-25T06:29:02;6.50;99.90
15906;DHT22;8051;50.820;4.884;2023-04-25T06:31:29;6.50;99.90
15906;DHT22;8051;50.820;4.884;2023-04-25T06:33:59;6.50;99.90
15906;DHT22;8051;50.820;4.884;2023-04-25T06:36:27;6.50;99.90
15906;DHT22;8051;50.820;4.884;2023-04-25T06:38:54;6.50;99.90
15906;DHT22;8051;50.820;4.884;2023-04-25T06:41:21;6.50;99.90
15906;DHT22;8051;50.820;4.884;2023-04-25T06:43:49;6.70;99.90
15906;DHT22;8051;50.820;4.884;2023-04-25T06:46:16;6.70;99.90
15906;DHT22;8051;50.820;4.884;2023-04-25T06:48:43;6.90;99.90
15906;DHT22;8051;50.820;4.884;2023-04-25T06:51:12;7.00;99.90
15906;DHT22;8051;50.820;4.884;2023-04-25T06:53:40;7.00;99.90
15906;DHT22;8051;50.820;4.884;2023-04-25T06:56:07;7.10;99.90
15906;DHT22;8051;50.820;4.884;2023-04-25T06:58:36;7.10;99.90
15906;DHT22;8051;50.820;4.884;2023-04-25T07:01:03;7.30;99.90
15906;DHT22;8051;50.820;4.884;2023-04-25T07:03:31;7.40;99.90
15906;DHT22;8051;50.820;4.884;2023-04-25T07:05:58;7.50;99.90
15906;DHT22;8051;50.820;4.884;2023-04-25T07:08:28;7.70;99.90
15906;DHT22;8051;50.820;4.884;2023-04-25T07:10:56;7.80;99.90
15906;DHT22;8051;50.820;4.884;2023-04-25T07:13:23;7.80;99.90
15906;DHT22;8051;50.820;4.884;2023-04-25T07:15:50;7.70;99.90
15906;DHT22;8051;50.820;4.884;2023-04-25T07:18:18;7.80;99.90
15906;DHT22;8051;50.820;4.884;2023-04-25T07:20:45;7.80;99.90
15906;DHT22;8051;50.820;4.884;2023-04-25T07:23:13;7.80;99.90
15906;DHT22;8051;50.820;4.884;2023-04-25T07:25:41;8.00;99.90
15906;DHT22;8051;50.820;4.884;2023-04-25T07:28:09;8.10;99.90
15906;DHT22;8051;50.820;4.884;2023-04-25T07:30:36;8.30;99.90
15906;DHT22;8051;50.820;4.884;2023-04-25T07:33:04;8.40;99.90
15906;DHT22;8051;50.820;4.884;2023-04-25T07:35:31;8.40;99.90
15906;DHT22;8051;50.820;4.884;2023-04-25T07:37:59;8.40;99.90
15906;DHT22;8051;50.820;4.884;2023-04-25T07:40:26;8.50;99.90
15906;DHT22;8051;50.820;4.884;2023-04-25T07:42:55;8.50;99.90
15906;DHT22;8051;50.820;4.884;2023-04-25T07:45:23;8.60;99.90
15906;DHT22;8051;50.820;4.884;2023-04-25T07:47:51;8.90;99.90
15906;DHT22;8051;50.820;4.884;2023-04-25T07:50:18;9.00;99.90
15906;DHT22;8051;50.820;4.884;2023-04-25T07:52:46;9.00;99.90
15906;DHT22;8051;50.820;4.884;2023-04-25T07:55:13;9.00;99.90
15906;DHT22;8051;50.820;4.884;2023-04-25T07:57:41;8.90;99.90
15906;DHT22;8051;50.820;4.884;2023-04-25T08:00:11;8.80;99.90
15906;DHT22;8051;50.820;4.884;2023-04-25T08:02:39;8.70;99.90
15906;DHT22;8051;50.820;4.884;2023-04-25T08:05:07;8.90;99.90
15906;DHT22;8051;50.820;4.884;2023-04-25T08:07:37;9.10;99.90
15906;DHT22;8051;50.820;4.884;2023-04-25T08:10:07;9.40;99.90
15906;DHT22;8051;50.820;4.884;2023-04-25T08:12:35;9.70;99.90
15906;DHT22;8051;50.820;4.884;2023-04-25T08:15:03;9.80;99.90
15906;DHT22;8051;50.820;4.884;2023-04-25T08:17:32;9.90;99.90
15906;DHT22;8051;50.820;4.884;2023-04-25T08:20:00;9.90;99.90
15906;DHT22;8051;50.820;4.884;2023-04-25T08:22:30;9.80;99.90
15906;DHT22;8051;50.820;4.884;2023-04-25T08:24:57;9.60;99.90
15906;DHT22;8051;50.820;4.884;2023-04-25T08:27:25;9.40;99.90
15906;DHT22;8051;50.820;4.884;2023-04-25T08:29:52;9.30;99.90
15906;DHT22;8051;50.820;4.884;2023-04-25T08:32:20;9.20;99.90
15906;DHT22;8051;50.820;4.884;2023-04-25T08:34:49;9.00;99.90
15906;DHT22;8051;50.820;4.884;2023-04-25T08:37:19;8.90;99.90
15906;DHT22;8051;50.820;4.884;2023-04-25T08:39:47;8.70;99.90
15906;DHT22;8051;50.820;4.884;2023-04-25T08:42:18;8.50;99.90
15906;DHT22;8051;50.820;4.884;2023-04-25T08:44:48;8.50;99.90
15906;DHT22;8051;50.820;4.884;2023-04-25T08:47:16;8.40;99.90
15906;DHT22;8051;50.820;4.884;2023-04-25T08:49:45;8.40;99.90
15906;DHT22;8051;50.820;4.884;2023-04-25T08:52:15;8.40;99.90
15906;DHT22;8051;50.820;4.884;2023-04-25T08:54:47;8.30;99.90
15906;DHT22;8051;50.820;4.884;2023-04-25T08:57:15;8.40;99.90
15906;DHT22;8051;50.820;4.884;2023-04-25T08:59:44;8.40;99.90
15906;DHT22;8051;50.820;4.884;2023-04-25T09:02:12;8.40;99.90
15906;DHT22;8051;50.820;4.884;2023-04-25T09:04:43;8.40;99.90
15906;DHT22;8051;50.820;4.884;2023-04-25T09:07:11;8.50;99.90
15906;DHT22;8051;50.820;4.884;2023-04-25T09:09:42;8.60;99.90
15906;DHT22;8051;50.820;4.884;2023-04-25T09:12:10;8.70;99.90
15906;DHT22;8051;50.820;4.884;2023-04-25T09:14:37;8.80;99.90
15906;DHT22;8051;50.820;4.884;2023-04-25T09:17:05;8.90;99.90
15906;DHT22;8051;50.820;4.884;2023-04-25T09:19:34;9.00;99.90
15906;DHT22;8051;50.820;4.884;2023-04-25T09:22:04;9.10;99.90
15906;DHT22;8051;50.820;4.884;2023-04-25T09:24:33;9.20;99.90
15906;DHT22;8051;50.820;4.884;2023-04-25T09:27:03;9.30;99.90
15906;DHT22;8051;50.820;4.884;2023-04-25T09:29:31;9.30;99.90
15906;DHT22;8051;50.820;4.884;2023-04-25T09:32:15;9.40;99.90
15906;DHT22;8051;50.820;4.884;2023-04-25T09:34:43;9.30;99.90
15906;DHT22;8051;50.820;4.884;2023-04-25T09:37:17;9.30;99.90
15906;DHT22;8051;50.820;4.884;2023-04-25T09:39:45;9.20;99.90
15906;DHT22;8051;50.820;4.884;2023-04-25T09:42:14;9.20;99.90
15906;DHT22;8051;50.820;4.884;2023-04-25T09:44:44;9.60;99.90
15906;DHT22;8051;50.820;4.884;2023-04-25T09:47:12;10.40;99.90
15906;DHT22;8051;50.820;4.884;2023-04-25T09:49:40;11.00;99.90
15906;DHT22;8051;50.820;4.884;2023-04-25T09:52:13;10.60;99.90
15906;DHT22;8051;50.820;4.884;2023-04-25T09:54:40;10.20;99.90
15906;DHT22;8051;50.820;4.884;2023-04-25T09:57:11;9.90;99.90
15906;DHT22;8051;50.820;4.884;2023-04-25T09:59:43;9.60;99.90
15906;DHT22;8051;50.820;4.884;2023-04-25T10:02:12;9.30;99.90
15906;DHT22;8051;50.820;4.884;2023-04-25T10:04:41;9.00;99.90
15906;DHT22;8051;50.820;4.884;2023-04-25T10:07:09;8.80;99.90
15906;DHT22;8051;50.820;4.884;2023-04-25T10:09:37;8.60;99.90
15906;DHT22;8051;50.820;4.884;2023-04-25T10:12:07;8.50;99.90
15906;DHT22;8051;50.820;4.884;2023-04-25T10:14:35;8.20;99.90
15906;DHT22;8051;50.820;4.884;2023-04-25T10:17:04;8.00;99.90
15906;DHT22;8051;50.820;4.884;2023-04-25T10:19:32;8.00;99.90
15906;DHT22;8051;50.820;4.884;2023-04-25T10:22:06;8.00;99.90
15906;DHT22;8051;50.820;4.884;2023-04-25T10:24:35;8.30;99.90
15906;DHT22;8051;50.820;4.884;2023-04-25T10:27:04;8.70;99.90
15906;DHT22;8051;50.820;4.884;2023-04-25T10:29:32;9.20;99.90
15906;DHT22;8051;50.820;4.884;2023-04-25T10:31:59;9.30;99.90
15906;DHT22;8051;50.820;4.884;2023-04-25T10:34:40;9.60;99.90
15906;DHT22;8051;50.820;4.884;2023-04-25T10:37:11;9.80;99.90
15906;DHT22;8051;50.820;4.884;2023-04-25T10:39:40;9.90;99.90
15906;DHT22;8051;50.820;4.884;2023-04-25T10:42:08;9.90;99.90
15906;DHT22;8051;50.820;4.884;2023-04-25T10:44:37;9.90;99.90
15906;DHT22;8051;50.820;4.884;2023-04-25T10:47:07;9.80;99.90
15906;DHT22;8051;50.820;4.884;2023-04-25T10:49:36;10.00;99.90
15906;DHT22;8051;50.820;4.884;2023-04-25T10:52:24;10.10;99.90
15906;DHT22;8051;50.820;4.884;2023-04-25T10:54:54;10.20;99.90
15906;DHT22;8051;50.820;4.884;2023-04-25T10:57:31;10.30;99.90
15906;DHT22;8051;50.820;4.884;2023-04-25T11:00:00;10.60;99.90
15906;DHT22;8051;50.820;4.884;2023-04-25T11:02:31;10.70;99.90
15906;DHT22;8051;50.820;4.884;2023-04-25T11:04:59;10.70;99.90
15906;DHT22;8051;50.820;4.884;2023-04-25T11:07:34;10.70;99.90
15906;DHT22;8051;50.820;4.884;2023-04-25T11:10:05;11.00;99.90
15906;DHT22;8051;50.820;4.884;2023-04-25T11:12:33;11.30;99.90
15906;DHT22;8051;50.820;4.884;2023-04-25T11:15:02;11.50;99.90
15906;DHT22;8051;50.820;4.884;2023-04-25T11:17:29;11.70;99.90
15906;DHT22;8051;50.820;4.884;2023-04-25T11:19:57;11.80;99.90
15906;DHT22;8051;50.820;4.884;2023-04-25T11:22:25;11.90;99.90
15906;DHT22;8051;50.820;4.884;2023-04-25T11:24:54;12.00;99.90
15906;DHT22;8051;50.820;4.884;2023-04-25T11:27:22;12.10;99.90
15906;DHT22;8051;50.820;4.884;2023-04-25T11:29:50;12.40;99.90
15906;DHT22;8051;50.820;4.884;2023-04-25T11:32:18;12.50;99.90
15906;DHT22;8051;50.820;4.884;2023-04-25T11:34:47;12.30;99.90
15906;DHT22;8051;50.820;4.884;2023-04-25T11:37:14;12.00;99.90
15906;DHT22;8051;50.820;4.884;2023-04-25T11:39:45;11.60;99.90
15906;DHT22;8051;50.820;4.884;2023-04-25T11:42:14;11.30;99.90
15906;DHT22;8051;50.820;4.884;2023-04-25T11:44:42;11.40;99.90
15906;DHT22;8051;50.820;4.884;2023-04-25T11:47:09;11.50;99.90
15906;DHT22;8051;50.820;4.884;2023-04-25T11:49:37;11.70;99.90
15906;DHT22;8051;50.820;4.884;2023-04-25T11:52:06;11.90;99.90
15906;DHT22;8051;50.820;4.884;2023-04-25T11:54:36;12.00;99.90
15906;DHT22;8051;50.820;4.884;2023-04-25T11:57:04;11.90;99.90
15906;DHT22;8051;50.820;4.884;2023-04-25T11:59:33;12.10;99.90
15906;DHT22;8051;50.820;4.884;2023-04-25T12:02:00;12.50;99.90
15906;DHT22;8051;50.820;4.884;2023-04-25T12:04:30;12.50;99.90
15906;DHT22;8051;50.820;4.884;2023-04-25T12:06:59;12.20;99.90
15906;DHT22;8051;50.820;4.884;2023-04-25T12:09:29;11.90;99.90
15906;DHT22;8051;50.820;4.884;2023-04-25T12:11:58;11.70;99.90
15906;DHT22;8051;50.820;4.884;2023-04-25T12:14:29;11.20;99.90
15906;DHT22;8051;50.820;4.884;2023-04-25T12:17:00;10.90;99.90
15906;DHT22;8051;50.820;4.884;2023-04-25T12:19:32;10.50;99.90
15906;DHT22;8051;50.820;4.884;2023-04-25T12:22:00;10.10;99.90
15906;DHT22;8051;50.820;4.884;2023-04-25T12:24:28;9.50;99.90
15906;DHT22;8051;50.820;4.884;2023-04-25T12:27:00;9.00;99.90
15906;DHT22;8051;50.820;4.884;2023-04-25T12:29:29;9.10;99.90
15906;DHT22;8051;50.820;4.884;2023-04-25T12:31:56;9.40;99.90
15906;DHT22;8051;50.820;4.884;2023-04-25T12:34:25;9.80;99.90
15906;DHT22;8051;50.820;4.884;2023-04-25T12:36:53;10.00;99.90
15906;DHT22;8051;50.820;4.884;2023-04-25T12:39:22;10.30;99.90
15906;DHT22;8051;50.820;4.884;2023-04-25T12:41:50;10.50;99.90
15906;DHT22;8051;50.820;4.884;2023-04-25T12:44:18;10.70;99.90
15906;DHT22;8051;50.820;4.884;2023-04-25T12:46:45;10.60;99.90
15906;DHT22;8051;50.820;4.884;2023-04-25T12:49:13;10.80;99.90
15906;DHT22;8051;50.820;4.884;2023-04-25T12:51:42;10.90;99.90
15906;DHT22;8051;50.820;4.884;2023-04-25T12:54:10;11.00;99.90
15906;DHT22;8051;50.820;4.884;2023-04-25T12:56:37;11.20;99.90
15906;DHT22;8051;50.820;4.884;2023-04-25T12:59:05;11.60;99.90
15906;DHT22;8051;50.820;4.884;2023-04-25T13:01:32;12.10;99.90
15906;DHT22;8051;50.820;4.884;2023-04-25T13:04:00;12.20;99.90
15906;DHT22;8051;50.820;4.884;2023-04-25T13:06:27;12.50;99.90
15906;DHT22;8051;50.820;4.884;2023-04-25T13:08:57;12.50;99.90
15906;DHT22;8051;50.820;4.884;2023-04-25T13:11:25;12.70;99.90
15906;DHT22;8051;50.820;4.884;2023-04-25T13:13:52;12.40;99.90
15906;DHT22;8051;50.820;4.884;2023-04-25T13:16:20;11.90;99.90
15906;DHT22;8051;50.820;4.884;2023-04-25T13:18:48;11.60;99.90
15906;DHT22;8051;50.820;4.884;2023-04-25T13:21:15;11.50;99.90
15906;DHT22;8051;50.820;4.884;2023-04-25T13:23:43;11.40;99.90
15906;DHT22;8051;50.820;4.884;2023-04-25T13:26:13;11.40;99.90
15906;DHT22;8051;50.820;4.884;2023-04-25T13:28:41;11.60;99.90
15906;DHT22;8051;50.820;4.884;2023-04-25T13:31:08;11.70;99.90
15906;DHT22;8051;50.820;4.884;2023-04-25T13:33:36;11.70;99.90
15906;DHT22;8051;50.820;4.884;2023-04-25T13:36:04;11.70;99.90
15906;DHT22;8051;50.820;4.884;2023-04-25T13:38:31;11.60;99.90
15906;DHT22;8051;50.820;4.884;2023-04-25T13:40:58;11.60;99.90
15906;DHT22;8051;50.820;4.884;2023-04-25T13:43:28;11.40;99.90
15906;DHT22;8051;50.820;4.884;2023-04-25T13:45:55;11.70;99.90
15906;DHT22;8051;50.820;4.884;2023-04-25T13:48:24;11.70;99.90
15906;DHT22;8051;50.820;4.884;2023-04-25T13:50:51;12.00;99.90
15906;DHT22;8051;50.820;4.884;2023-04-25T13:53:19;12.20;99.90
15906;DHT22;8051;50.820;4.884;2023-04-25T13:55:46;12.20;99.90
15906;DHT22;8051;50.820;4.884;2023-04-25T13:58:14;12.20;99.90
15906;DHT22;8051;50.820;4.884;2023-04-25T14:00:42;11.90;99.90
15906;DHT22;8051;50.820;4.884;2023-04-25T14:03:11;11.80;99.90
15906;DHT22;8051;50.820;4.884;2023-04-25T14:05:39;11.80;99.90
15906;DHT22;8051;50.820;4.884;2023-04-25T14:08:07;11.90;99.90
15906;DHT22;8051;50.820;4.884;2023-04-25T14:10:35;12.00;99.90
15906;DHT22;8051;50.820;4.884;2023-04-25T14:13:03;12.00;99.90
15906;DHT22;8051;50.820;4.884;2023-04-25T14:15:32;12.20;99.90
15906;DHT22;8051;50.820;4.884;2023-04-25T14:18:01;12.20;99.90
15906;DHT22;8051;50.820;4.884;2023-04-25T14:20:29;12.00;99.90
15906;DHT22;8051;50.820;4.884;2023-04-25T14:22:57;12.00;99.90
15906;DHT22;8051;50.820;4.884;2023-04-25T14:25:25;12.00;99.90
15906;DHT22;8051;50.820;4.884;2023-04-25T14:27:52;11.90;99.90
15906;DHT22;8051;50.820;4.884;2023-04-25T14:30:21;12.10;99.90
15906;DHT22;8051;50.820;4.884;2023-04-25T14:32:49;12.40;99.90
15906;DHT22;8051;50.820;4.884;2023-04-25T14:35:18;12.30;99.90
15906;DHT22;8051;50.820;4.884;2023-04-25T14:37:46;12.20;99.90
15906;DHT22;8051;50.820;4.884;2023-04-25T14:40:14;12.70;99.90
15906;DHT22;8051;50.820;4.884;2023-04-25T14:42:42;12.90;99.90
15906;DHT22;8051;50.820;4.884;2023-04-25T14:45:11;12.70;99.90
15906;DHT22;8051;50.820;4.884;2023-04-25T14:47:38;12.40;99.90
15906;DHT22;8051;50.820;4.884;2023-04-25T14:50:07;12.10;99.90
15906;DHT22;8051;50.820;4.884;2023-04-25T14:52:36;11.90;99.90
15906;DHT22;8051;50.820;4.884;2023-04-25T14:55:04;12.00;99.90
15906;DHT22;8051;50.820;4.884;2023-04-25T14:57:34;12.20;99.90
15906;DHT22;8051;50.820;4.884;2023-04-25T15:00:02;12.60;99.90
15906;DHT22;8051;50.820;4.884;2023-04-25T15:02:31;13.00;99.90
15906;DHT22;8051;50.820;4.884;2023-04-25T15:04:58;13.10;99.90
15906;DHT22;8051;50.820;4.884;2023-04-25T15:07:26;12.60;99.90
15906;DHT22;8051;50.820;4.884;2023-04-25T15:09:55;12.30;99.90
15906;DHT22;8051;50.820;4.884;2023-04-25T15:12:23;12.00;99.90
15906;DHT22;8051;50.820;4.884;2023-04-25T15:14:52;11.80;99.90
15906;DHT22;8051;50.820;4.884;2023-04-25T15:17:19;11.90;99.90
15906;DHT22;8051;50.820;4.884;2023-04-25T15:19:47;12.10;99.90
15906;DHT22;8051;50.820;4.884;2023-04-25T15:22:14;12.20;99.90
15906;DHT22;8051;50.820;4.884;2023-04-25T15:24:41;12.30;99.90
15906;DHT22;8051;50.820;4.884;2023-04-25T15:27:10;12.50;99.90
15906;DHT22;8051;50.820;4.884;2023-04-25T15:29:38;12.70;99.90
15906;DHT22;8051;50.820;4.884;2023-04-25T15:32:06;12.70;99.90
15906;DHT22;8051;50.820;4.884;2023-04-25T15:34:33;12.50;99.90
15906;DHT22;8051;50.820;4.884;2023-04-25T15:37:01;12.50;99.90
15906;DHT22;8051;50.820;4.884;2023-04-25T15:39:28;12.70;99.90
15906;DHT22;8051;50.820;4.884;2023-04-25T15:41:56;12.90;99.90
15906;DHT22;8051;50.820;4.884;2023-04-25T15:44:25;13.00;99.90
15906;DHT22;8051;50.820;4.884;2023-04-25T15:46:53;13.00;99.90
15906;DHT22;8051;50.820;4.884;2023-04-25T15:49:20;12.80;99.90
15906;DHT22;8051;50.820;4.884;2023-04-25T15:51:48;12.80;99.90
15906;DHT22;8051;50.820;4.884;2023-04-25T15:54:15;12.80;99.90
15906;DHT22;8051;50.820;4.884;2023-04-25T15:56:43;12.70;99.90
15906;DHT22;8051;50.820;4.884;2023-04-25T15:59:12;12.80;99.90
15906;DHT22;8051;50.820;4.884;2023-04-25T16:01:41;12.80;99.90
15906;DHT22;8051;50.820;4.884;2023-04-25T16:04:08;12.60;99.90